Time;durP1;ratioP1;P1;durP2;ratioP2;P2;SDS_P1;SDS_P2;PMS_P1;PMS_P2;Temp;Humidity;BMP_temperature;BMP_pressure;BME280_temperature;BME280_humidity;BME280_pressure;Samples;Min_cycle;Max_cycle;Signal;HPM_P1;HPM_P2
2024/01/02 00:01:47;;;;;;;3.35;1.45;;;3.90;99.40;;;;;;5002697;28;20110;-75
2024/01/02 00:04:13;;;;;;;4.35;1.15;;;3.80;99.20;;;;;;5007932;28;20030;-74
2024/01/02 00:06:39;;;;;;;1.98;1.10;;;3.80;99.30;;;;;;4997894;28;20031;-75
2024/01/02 00:09:04;;;;;;;3.05;1.42;;;3.70;99.30;;;;;;5000349;28;20355;-74
2024/01/02 00:11:29;;;;;;;1.90;1.10;;;3.80;99.50;;;;;;5003763;28;20172;-74
2024/01/02 00:13:55;;;;;;;1.65;1.15;;;3.70;99.50;;;;;;5004809;28;20080;-74
2024/01/02 00:16:20;;;;;;;6.40;0.93;;;3.70;99.50;;;;;;4996299;28;20069;-75
2024/01/02 00:18:46;;;;;;;4.38;1.52;;;3.70;99.50;;;;;;4986548;28;20502;-75
2024/01/02 00:21:11;;;;;;;3.15;1.15;;;3.70;99.60;;;;;;5000967;28;20069;-75
2024/01/02 00:23:38;;;;;;;4.28;1.15;;;3.60;99.60;;;;;;4996673;28;20391;-76
2024/01/02 00:26:03;;;;;;;5.63;1.30;;;3.70;99.80;;;;;;4997113;28;20453;-75
2024/01/02 00:28:29;;;;;;;3.65;1.42;;;3.70;99.70;;;;;;4996354;28;20042;-75
2024/01/02 00:30:54;;;;;;;1.75;0.73;;;3.60;99.70;;;;;;4999752;28;20466;-74
2024/01/02 00:33:20;;;;;;;2.53;1.30;;;3.60;99.70;;;;;;4996928;28;20034;-74
2024/01/02 00:35:45;;;;;;;8.10;2.05;;;3.60;99.70;;;;;;4985505;28;20096;-74
2024/01/02 00:38:11;;;;;;;5.72;1.33;;;3.60;99.80;;;;;;5003713;28;20485;-75
2024/01/02 00:40:36;;;;;;;1.83;1.20;;;3.50;99.80;;;;;;4996982;28;20046;-74
2024/01/02 00:43:02;;;;;;;2.10;1.05;;;3.50;99.80;;;;;;4997819;28;20046;-75
2024/01/02 00:45:28;;;;;;;2.75;1.20;;;3.50;99.80;;;;;;4996566;28;20414;-75
2024/01/02 00:47:53;;;;;;;2.53;1.20;;;3.60;99.90;;;;;;4997111;28;20030;-74
2024/01/02 00:50:21;;;;;;;6.45;2.35;;;3.50;99.90;;;;;;4998220;28;20039;-74
2024/01/02 00:52:47;;;;;;;3.45;1.73;;;3.60;99.90;;;;;;5005513;28;20133;-74
2024/01/02 00:55:12;;;;;;;2.95;1.38;;;3.60;99.90;;;;;;4972522;28;20485;-74
2024/01/02 00:57:38;;;;;;;1.58;1.05;;;3.50;99.90;;;;;;5003957;28;20145;-75
2024/01/02 01:00:05;;;;;;;1.77;1.10;;;3.50;99.90;;;;;;4998260;28;20120;-74
2024/01/02 01:02:30;;;;;;;5.35;1.30;;;3.60;99.90;;;;;;5004234;28;20038;-75
2024/01/02 01:04:56;;;;;;;2.80;1.20;;;3.50;99.90;;;;;;5000265;28;20084;-74
2024/01/02 01:07:22;;;;;;;2.78;1.33;;;3.50;99.90;;;;;;5003432;28;20041;-74
2024/01/02 01:09:47;;;;;;;2.95;1.52;;;3.60;99.90;;;;;;4999899;28;20666;-74
2024/01/02 01:12:13;;;;;;;3.90;2.10;;;3.50;99.90;;;;;;5000508;28;20100;-75
2024/01/02 01:14:38;;;;;;;2.50;1.38;;;3.50;99.90;;;;;;5001238;28;20048;-74
2024/01/02 01:17:05;;;;;;;3.45;1.65;;;3.60;99.90;;;;;;4998480;28;20021;-74
2024/01/02 01:19:31;;;;;;;3.55;1.35;;;3.60;99.90;;;;;;5003540;28;20377;-74
2024/01/02 01:21:57;;;;;;;4.45;1.63;;;3.60;99.90;;;;;;4998805;28;20033;-74
2024/01/02 01:24:22;;;;;;;4.10;1.33;;;3.60;99.90;;;;;;4991537;28;20045;-74
2024/01/02 01:26:52;;;;;;;3.80;1.83;;;3.60;99.90;;;;;;4975415;28;20026;-74
2024/01/02 01:29:21;;;;;;;2.55;1.38;;;3.60;99.90;;;;;;4996872;28;20018;-75
2024/01/02 01:31:47;;;;;;;4.30;1.35;;;3.60;99.90;;;;;;5000840;28;20038;-75
2024/01/02 01:34:13;;;;;;;4.47;1.83;;;3.50;99.90;;;;;;4997187;28;20113;-75
2024/01/02 01:36:38;;;;;;;4.25;1.90;;;3.50;99.90;;;;;;5000446;28;20125;-75
2024/01/02 01:39:04;;;;;;;3.72;1.80;;;3.60;99.90;;;;;;4996618;28;20046;-75
2024/01/02 01:41:30;;;;;;;5.55;1.63;;;3.60;99.90;;;;;;5000751;28;20504;-75
2024/01/02 01:43:56;;;;;;;5.57;1.95;;;3.50;99.90;;;;;;4996837;28;20030;-74
2024/01/02 01:46:22;;;;;;;6.32;1.40;;;3.50;99.90;;;;;;5001543;28;20175;-75
2024/01/02 01:48:48;;;;;;;2.72;1.23;;;3.50;99.90;;;;;;4996809;28;20427;-74
2024/01/02 01:51:14;;;;;;;3.10;1.73;;;3.60;99.90;;;;;;5001572;28;20184;-74
2024/01/02 01:53:41;;;;;;;4.47;1.17;;;3.60;99.90;;;;;;4998590;28;20057;-74
2024/01/02 01:56:07;;;;;;;6.05;1.20;;;3.50;99.80;;;;;;5006358;28;20045;-74
2024/01/02 01:58:33;;;;;;;2.45;1.48;;;3.50;99.90;;;;;;5000870;28;20528;-76
2024/01/02 02:00:58;;;;;;;3.00;1.52;;;3.50;99.80;;;;;;5001011;28;20117;-74
2024/01/02 02:03:26;;;;;;;6.20;1.65;;;3.50;99.90;;;;;;4996321;28;20034;-74
2024/01/02 02:05:51;;;;;;;2.60;1.25;;;3.50;99.80;;;;;;4998672;28;20427;-74
2024/01/02 02:08:17;;;;;;;4.93;1.65;;;3.50;99.90;;;;;;4974365;28;20141;-75
2024/01/02 02:10:42;;;;;;;6.43;1.73;;;3.50;99.80;;;;;;4990967;28;20455;-74
2024/01/02 02:13:08;;;;;;;2.88;1.42;;;3.50;99.80;;;;;;4991695;28;20105;-74
2024/01/02 02:15:38;;;;;;;2.22;1.42;;;3.40;99.80;;;;;;4985020;28;20470;-74
2024/01/02 02:18:04;;;;;;;4.28;1.98;;;3.40;99.80;;;;;;4996361;28;20055;-74
2024/01/02 02:20:29;;;;;;;2.88;1.50;;;3.40;99.80;;;;;;4995075;28;20038;-74
2024/01/02 02:22:55;;;;;;;8.63;2.03;;;3.30;99.80;;;;;;4994251;28;20078;-75
2024/01/02 02:25:20;;;;;;;4.78;1.58;;;3.40;99.90;;;;;;4994283;28;20134;-74
2024/01/02 02:27:46;;;;;;;2.47;1.30;;;3.40;99.90;;;;;;4998784;28;20109;-74
2024/01/02 02:30:12;;;;;;;3.88;1.42;;;3.40;99.90;;;;;;4998521;28;20412;-75
2024/01/02 02:32:38;;;;;;;7.32;1.70;;;3.30;99.90;;;;;;4997723;28;20081;-74
2024/01/02 02:35:05;;;;;;;3.63;1.33;;;3.30;99.90;;;;;;4998924;28;20030;-75
2024/01/02 02:37:31;;;;;;;4.78;1.70;;;3.30;99.90;;;;;;5001456;28;20034;-75
2024/01/02 02:39:56;;;;;;;4.25;1.63;;;3.30;99.90;;;;;;4992781;28;20046;-74
2024/01/02 02:42:22;;;;;;;2.40;1.30;;;3.30;99.90;;;;;;4990692;28;20445;-76
2024/01/02 02:44:47;;;;;;;6.57;2.13;;;3.30;99.90;;;;;;4994470;28;20057;-75
2024/01/02 02:47:13;;;;;;;4.25;1.50;;;3.30;99.80;;;;;;4998646;28;20179;-74
2024/01/02 02:49:39;;;;;;;3.03;1.67;;;3.30;99.90;;;;;;4994617;28;20366;-74
2024/01/02 02:52:05;;;;;;;2.38;1.10;;;3.30;99.80;;;;;;5001438;28;20038;-74
2024/01/02 02:54:30;;;;;;;2.88;1.35;;;3.30;99.80;;;;;;4998816;28;20041;-74
2024/01/02 02:56:56;;;;;;;4.03;1.30;;;3.30;99.90;;;;;;5005948;28;20419;-74
2024/01/02 02:59:21;;;;;;;2.75;1.40;;;3.30;99.80;;;;;;4999046;28;20093;-74
2024/01/02 03:01:47;;;;;;;2.38;1.30;;;3.30;99.80;;;;;;5003892;28;20544;-74
2024/01/02 03:04:13;;;;;;;2.70;1.45;;;3.30;99.80;;;;;;5003549;28;20022;-74
2024/01/02 03:06:38;;;;;;;3.10;1.30;;;3.30;99.70;;;;;;4998907;28;20393;-74
2024/01/02 03:09:04;;;;;;;2.22;1.27;;;3.30;99.70;;;;;;4998294;28;20138;-75
2024/01/02 03:11:29;;;;;;;2.47;1.35;;;3.20;99.70;;;;;;5001672;28;20422;-74
2024/01/02 03:13:55;;;;;;;7.20;1.70;;;3.20;99.70;;;;;;4999711;28;20102;-75
2024/01/02 03:16:23;;;;;;;3.20;1.48;;;3.20;99.70;;;;;;5001257;28;20038;-75
2024/01/02 03:18:48;;;;;;;2.78;1.83;;;3.20;99.70;;;;;;5006132;28;20052;-74
2024/01/02 03:21:14;;;;;;;5.43;1.48;;;3.20;99.70;;;;;;5004069;28;20034;-74
2024/01/02 03:23:39;;;;;;;7.07;1.77;;;3.20;99.70;;;;;;4995808;28;20094;-73
2024/01/02 03:26:05;;;;;;;1.83;1.15;;;3.30;99.70;;;;;;5004107;28;20430;-74
2024/01/02 03:28:31;;;;;;;2.50;1.10;;;3.30;99.60;;;;;;5000158;28;20107;-75
2024/01/02 03:30:56;;;;;;;1.92;1.23;;;3.30;99.50;;;;;;4998901;28;20030;-74
2024/01/02 03:33:22;;;;;;;4.43;1.02;;;3.30;99.50;;;;;;5000064;28;20060;-75
2024/01/02 03:35:47;;;;;;;3.55;1.30;;;3.40;99.50;;;;;;5002505;28;20034;-74
2024/01/02 03:38:14;;;;;;;5.13;1.85;;;3.40;99.40;;;;;;5002024;28;20120;-77
2024/01/02 03:40:39;;;;;;;5.30;1.88;;;3.40;99.40;;;;;;5002403;28;20111;-74
2024/01/02 03:43:05;;;;;;;3.28;1.33;;;3.50;99.40;;;;;;4994268;28;20431;-74
2024/01/02 03:45:31;;;;;;;6.07;1.27;;;3.50;99.20;;;;;;5000557;28;20157;-74
2024/01/02 03:47:56;;;;;;;1.70;1.15;;;3.50;99.10;;;;;;5001323;28;20045;-74
2024/01/02 03:50:23;;;;;;;2.25;1.25;;;3.50;99.00;;;;;;4999782;28;20053;-75
2024/01/02 03:52:48;;;;;;;2.33;1.27;;;3.50;98.90;;;;;;4999906;28;20422;-75
2024/01/02 03:55:14;;;;;;;2.63;1.33;;;3.50;98.90;;;;;;5000853;28;20116;-74
2024/01/02 03:57:39;;;;;;;3.35;1.52;;;3.60;98.80;;;;;;5001409;28;20065;-75
2024/01/02 04:00:05;;;;;;;2.13;1.05;;;3.60;98.70;;;;;;4992608;28;20064;-74
2024/01/02 04:02:31;;;;;;;2.80;1.00;;;3.60;98.70;;;;;;4998329;28;20056;-76
2024/01/02 04:04:56;;;;;;;3.92;1.02;;;3.60;98.60;;;;;;4999500;28;20132;-74
2024/01/02 04:07:22;;;;;;;2.25;1.10;;;3.60;98.50;;;;;;4993898;28;20038;-75
2024/01/02 04:09:47;;;;;;;2.47;1.27;;;3.70;98.50;;;;;;4999256;28;20156;-75
2024/01/02 04:12:13;;;;;;;1.48;0.95;;;3.70;98.40;;;;;;5007638;28;20037;-75
2024/01/02 04:14:39;;;;;;;2.15;0.95;;;3.70;98.40;;;;;;4997923;28;20089;-74
2024/01/02 04:17:04;;;;;;;4.32;1.23;;;3.80;98.30;;;;;;4999869;28;20527;-74
2024/01/02 04:19:29;;;;;;;1.98;1.08;;;3.70;98.30;;;;;;5002723;28;20120;-74
2024/01/02 04:21:55;;;;;;;3.50;1.15;;;3.80;98.20;;;;;;4996858;28;20030;-75
2024/01/02 04:24:21;;;;;;;2.33;0.80;;;3.80;98.10;;;;;;5000647;28;20044;-73
2024/01/02 04:26:46;;;;;;;4.22;1.33;;;3.80;97.90;;;;;;5003761;28;20050;-75
2024/01/02 04:29:12;;;;;;;4.88;0.77;;;3.80;97.80;;;;;;4978145;28;20069;-75
2024/01/02 04:31:37;;;;;;;1.38;0.80;;;3.90;97.90;;;;;;5004424;28;20129;-75
2024/01/02 04:34:02;;;;;;;1.10;0.60;;;3.90;97.80;;;;;;5002201;28;20053;-75
2024/01/02 04:36:28;;;;;;;2.65;1.20;;;3.90;97.80;;;;;;4999813;28;20106;-74
2024/01/02 04:38:53;;;;;;;0.82;0.80;;;4.00;97.70;;;;;;4996140;28;20042;-75
2024/01/02 04:41:20;;;;;;;1.30;1.13;;;3.90;97.70;;;;;;5007328;28;20370;-74
2024/01/02 04:43:45;;;;;;;3.13;1.08;;;4.00;97.70;;;;;;4995792;28;20054;-74
2024/01/02 04:46:11;;;;;;;1.52;0.88;;;4.00;97.70;;;;;;4998303;28;20421;-76
2024/01/02 04:48:36;;;;;;;1.52;0.70;;;4.00;97.70;;;;;;4996999;28;20037;-74
2024/01/02 04:51:02;;;;;;;3.22;1.00;;;4.00;97.70;;;;;;4997853;28;20037;-75
2024/01/02 04:53:28;;;;;;;1.85;0.75;;;4.10;97.70;;;;;;4983413;28;20038;-75
2024/01/02 04:55:53;;;;;;;1.30;0.80;;;4.10;97.60;;;;;;5001412;28;20026;-74
2024/01/02 04:58:19;;;;;;;0.80;0.80;;;4.10;97.50;;;;;;4995302;28;20087;-75
2024/01/02 05:00:44;;;;;;;1.75;0.90;;;4.10;97.60;;;;;;4995143;28;20033;-74
2024/01/02 05:03:10;;;;;;;3.83;0.68;;;4.10;97.50;;;;;;4998926;28;20058;-74
2024/01/02 05:05:35;;;;;;;6.30;1.20;;;4.10;97.40;;;;;;5002453;28;20030;-74
2024/01/02 05:08:01;;;;;;;2.97;0.68;;;4.20;97.40;;;;;;5000972;28;20090;-74
2024/01/02 05:10:26;;;;;;;2.58;1.13;;;4.20;97.40;;;;;;4999721;28;20042;-74
2024/01/02 05:12:52;;;;;;;3.08;1.23;;;4.20;97.40;;;;;;4988909;28;20038;-74
2024/01/02 05:15:18;;;;;;;1.05;0.68;;;4.20;97.40;;;;;;5000026;28;20048;-74
2024/01/02 05:17:44;;;;;;;0.57;0.57;;;4.20;97.40;;;;;;4993377;28;20026;-74
2024/01/02 05:20:10;;;;;;;1.05;0.68;;;4.30;97.50;;;;;;4997723;28;20117;-74
2024/01/02 05:22:35;;;;;;;8.93;1.02;;;4.30;97.50;;;;;;4999015;28;20068;-74
2024/01/02 05:25:01;;;;;;;3.75;0.80;;;4.30;97.50;;;;;;4989966;28;20033;-74
2024/01/02 05:27:26;;;;;;;1.60;0.60;;;4.40;97.60;;;;;;5000833;28;20443;-74
2024/01/02 05:29:52;;;;;;;0.95;0.73;;;4.30;97.70;;;;;;4994050;28;20038;-74
2024/01/02 05:32:17;;;;;;;2.78;0.90;;;4.30;97.90;;;;;;4993843;28;20144;-75
2024/01/02 05:34:43;;;;;;;1.33;0.45;;;4.30;98.00;;;;;;5005944;28;20104;-74
2024/01/02 05:37:08;;;;;;;1.48;0.82;;;4.30;98.10;;;;;;4996859;28;20033;-74
2024/01/02 05:39:33;;;;;;;1.52;0.80;;;4.40;98.40;;;;;;4999699;28;20415;-74
2024/01/02 05:41:59;;;;;;;2.55;0.60;;;4.40;98.50;;;;;;5005579;28;20034;-74
2024/01/02 05:44:24;;;;;;;2.45;0.70;;;4.40;98.60;;;;;;5003349;28;20030;-74
2024/01/02 05:46:50;;;;;;;1.25;0.82;;;4.30;98.70;;;;;;4992955;28;20427;-74
2024/01/02 05:49:16;;;;;;;0.73;0.43;;;4.40;98.90;;;;;;5000036;28;20037;-75
2024/01/02 05:51:41;;;;;;;1.48;0.88;;;4.40;99.00;;;;;;5003191;28;20418;-75
2024/01/02 05:54:07;;;;;;;1.17;0.50;;;4.40;99.00;;;;;;4998618;28;20100;-75
2024/01/02 05:56:32;;;;;;;4.03;0.95;;;4.30;99.20;;;;;;5000431;28;20030;-75
2024/01/02 05:58:58;;;;;;;3.97;0.75;;;4.40;99.20;;;;;;4995621;28;20176;-75
2024/01/02 06:01:23;;;;;;;1.90;0.68;;;4.40;99.30;;;;;;4996485;28;20078;-75
2024/01/02 06:03:48;;;;;;;2.05;1.13;;;4.40;99.40;;;;;;5002118;28;20050;-75
2024/01/02 06:06:14;;;;;;;3.30;0.60;;;4.40;99.50;;;;;;5001704;28;20026;-75
2024/01/02 06:08:39;;;;;;;0.73;0.47;;;4.40;99.50;;;;;;4993010;28;20054;-75
2024/01/02 06:11:05;;;;;;;1.70;0.38;;;4.40;99.60;;;;;;4996196;28;20113;-75
2024/01/02 06:13:31;;;;;;;1.33;0.47;;;4.40;99.60;;;;;;5003252;28;20421;-75
2024/01/02 06:15:56;;;;;;;0.57;0.50;;;4.40;99.80;;;;;;5000079;28;20073;-74
2024/01/02 06:18:22;;;;;;;3.70;0.85;;;4.40;99.80;;;;;;5001032;28;20410;-75
2024/01/02 06:20:47;;;;;;;1.80;0.70;;;4.40;99.80;;;;;;4999152;28;20043;-75
2024/01/02 06:23:13;;;;;;;2.63;0.60;;;4.40;99.90;;;;;;4997684;28;20431;-76
2024/01/02 06:25:38;;;;;;;1.80;0.65;;;4.50;99.90;;;;;;5003377;28;20030;-75
2024/01/02 06:28:04;;;;;;;1.23;0.52;;;4.50;99.90;;;;;;4999037;28;20445;-76
2024/01/02 06:30:29;;;;;;;1.05;0.55;;;4.50;99.90;;;;;;5000999;28;20101;-74
2024/01/02 06:32:54;;;;;;;1.52;0.82;;;4.50;99.90;;;;;;5009171;28;20050;-74
2024/01/02 06:35:20;;;;;;;1.15;0.60;;;4.50;99.90;;;;;;4998012;28;20026;-73
2024/01/02 06:37:45;;;;;;;0.50;0.50;;;4.50;99.90;;;;;;5001893;28;20114;-73
2024/01/02 06:40:11;;;;;;;1.98;0.88;;;4.50;99.90;;;;;;5004098;28;20042;-74
2024/01/02 06:42:36;;;;;;;1.70;0.60;;;4.50;99.90;;;;;;4999171;28;20447;-75
2024/01/02 06:45:02;;;;;;;1.05;0.57;;;4.60;99.90;;;;;;5000588;28;20140;-74
2024/01/02 06:47:27;;;;;;;1.77;0.85;;;4.60;99.90;;;;;;4999385;28;20061;-74
2024/01/02 06:49:53;;;;;;;2.40;0.57;;;4.60;99.90;;;;;;5002711;28;20089;-75
2024/01/02 06:52:19;;;;;;;1.30;0.90;;;4.60;99.90;;;;;;4993429;28;20038;-74
2024/01/02 06:54:44;;;;;;;2.80;1.05;;;4.60;99.90;;;;;;5001048;28;20627;-74
2024/01/02 06:57:10;;;;;;;2.50;0.90;;;4.60;99.90;;;;;;5000069;28;20065;-74
2024/01/02 06:59:36;;;;;;;1.27;0.73;;;4.60;99.90;;;;;;4992712;28;20046;-74
2024/01/02 07:02:02;;;;;;;1.02;0.63;;;4.60;99.90;;;;;;4998549;28;20034;-74
2024/01/02 07:04:28;;;;;;;2.38;1.10;;;4.60;99.90;;;;;;5006650;28;20026;-75
2024/01/02 07:06:53;;;;;;;5.05;1.02;;;4.70;99.90;;;;;;4999211;28;20045;-74
2024/01/02 07:09:19;;;;;;;3.28;0.77;;;4.70;99.90;;;;;;4999964;28;20038;-75
2024/01/02 07:11:45;;;;;;;2.38;0.73;;;4.70;99.90;;;;;;5000567;28;20113;-74
2024/01/02 07:14:10;;;;;;;1.92;0.65;;;4.70;99.90;;;;;;4997089;28;20144;-74
2024/01/02 07:16:36;;;;;;;0.40;0.35;;;4.70;99.90;;;;;;4998802;28;20077;-74
2024/01/02 07:19:01;;;;;;;0.93;0.75;;;4.70;99.90;;;;;;5001407;28;20042;-74
2024/01/02 07:21:27;;;;;;;1.23;0.55;;;4.70;99.90;;;;;;4989194;28;20391;-75
2024/01/02 07:23:52;;;;;;;0.68;0.68;;;4.70;99.90;;;;;;5002869;28;20469;-75
2024/01/02 07:26:18;;;;;;;2.30;0.68;;;4.70;99.90;;;;;;5009333;28;20026;-75
2024/01/02 07:28:44;;;;;;;2.00;0.73;;;4.70;99.90;;;;;;4984996;28;20066;-74
2024/01/02 07:31:10;;;;;;;1.05;0.63;;;4.70;99.90;;;;;;5003829;28;20423;-74
2024/01/02 07:33:36;;;;;;;0.40;0.40;;;4.70;99.90;;;;;;5003117;28;20044;-74
2024/01/02 07:36:02;;;;;;;1.52;0.60;;;4.70;99.90;;;;;;5001329;28;20042;-76
2024/01/02 07:38:27;;;;;;;1.42;0.70;;;4.70;99.90;;;;;;4996404;28;20312;-74
2024/01/02 07:40:53;;;;;;;1.65;0.80;;;4.70;99.90;;;;;;5004666;28;20042;-75
2024/01/02 07:43:19;;;;;;;2.53;0.82;;;4.70;99.90;;;;;;4995992;28;20026;-74
2024/01/02 07:45:44;;;;;;;1.33;0.55;;;4.70;99.90;;;;;;4999203;28;20119;-75
2024/01/02 07:48:10;;;;;;;0.60;0.40;;;4.70;99.90;;;;;;5002192;28;20033;-74
2024/01/02 07:50:35;;;;;;;0.93;0.50;;;4.70;99.90;;;;;;5005697;28;20087;-75
2024/01/02 07:53:01;;;;;;;0.43;0.30;;;4.70;99.90;;;;;;5006571;28;20072;-73
2024/01/02 07:55:26;;;;;;;0.40;0.35;;;4.70;99.90;;;;;;5003537;28;20461;-76
2024/01/02 07:57:51;;;;;;;0.82;0.60;;;4.60;99.90;;;;;;5001846;28;20222;-74
2024/01/02 08:00:18;;;;;;;0.35;0.32;;;4.60;99.90;;;;;;4995556;28;20068;-76
2024/01/02 08:02:43;;;;;;;0.45;0.45;;;4.60;99.90;;;;;;4998516;28;20159;-74
2024/01/02 08:05:09;;;;;;;0.30;0.30;;;4.60;99.90;;;;;;4991557;28;20126;-74
2024/01/02 08:07:34;;;;;;;0.75;0.55;;;4.60;99.90;;;;;;4998958;28;20117;-74
2024/01/02 08:10:00;;;;;;;0.20;0.20;;;4.60;99.90;;;;;;4999520;28;20157;-74
2024/01/02 08:12:25;;;;;;;0.28;0.20;;;4.60;99.90;;;;;;5005715;28;20041;-74
2024/01/02 08:14:51;;;;;;;0.45;0.45;;;4.60;99.90;;;;;;5003113;28;20160;-74
2024/01/02 08:17:23;;;;;;;0.70;0.30;;;4.60;99.90;;;;;;4998910;28;20403;-74
2024/01/02 08:19:49;;;;;;;0.20;0.20;;;4.60;99.90;;;;;;4995937;28;20156;-73
2024/01/02 08:22:14;;;;;;;0.52;0.47;;;4.60;99.90;;;;;;4994465;28;20131;-73
2024/01/02 08:24:39;;;;;;;1.95;0.50;;;4.60;99.90;;;;;;4998486;28;20072;-73
2024/01/02 08:27:05;;;;;;;0.20;0.20;;;4.60;99.90;;;;;;4999224;28;20026;-73
2024/01/02 08:29:30;;;;;;;2.15;0.40;;;4.60;99.90;;;;;;5004167;28;20064;-73
2024/01/02 08:31:56;;;;;;;0.22;0.20;;;4.60;99.90;;;;;;5005720;28;20041;-74
2024/01/02 08:34:21;;;;;;;0.28;0.28;;;4.60;99.90;;;;;;5006249;28;20342;-74
2024/01/02 08:36:47;;;;;;;0.77;0.52;;;4.70;99.90;;;;;;4999051;28;20038;-73
2024/01/02 08:39:12;;;;;;;1.90;0.30;;;4.70;99.90;;;;;;5005487;28;20106;-73
2024/01/02 08:41:38;;;;;;;2.58;0.40;;;4.70;99.90;;;;;;4993855;28;20375;-73
2024/01/02 08:44:04;;;;;;;0.88;0.40;;;4.70;99.90;;;;;;4995034;28;20058;-73
2024/01/02 08:46:29;;;;;;;0.17;0.17;;;4.70;99.90;;;;;;5001160;28;20053;-74
2024/01/02 08:48:55;;;;;;;0.20;0.20;;;4.70;99.90;;;;;;4993425;28;20113;-75
2024/01/02 08:51:21;;;;;;;0.30;0.30;;;4.70;99.90;;;;;;5003459;28;20041;-73
2024/01/02 08:53:46;;;;;;;0.85;0.30;;;4.70;99.90;;;;;;4997146;28;20030;-74
2024/01/02 08:56:12;;;;;;;0.68;0.40;;;4.70;99.90;;;;;;5001984;28;20080;-75
2024/01/02 08:58:37;;;;;;;1.73;0.47;;;4.70;99.90;;;;;;5004336;28;20040;-74
2024/01/02 09:01:03;;;;;;;1.65;0.30;;;4.70;99.90;;;;;;4999714;28;20096;-74
2024/01/02 09:03:30;;;;;;;0.40;0.30;;;4.70;99.90;;;;;;5007973;28;20030;-74
2024/01/02 09:05:56;;;;;;;0.30;0.30;;;4.70;99.90;;;;;;5004911;28;20033;-74
2024/01/02 09:08:21;;;;;;;1.05;0.55;;;4.70;99.90;;;;;;5004171;28;20340;-74
2024/01/02 09:10:47;;;;;;;0.30;0.30;;;4.70;99.90;;;;;;4998465;28;20108;-74
2024/01/02 09:13:12;;;;;;;0.32;0.30;;;4.70;99.90;;;;;;4998007;28;20130;-74
2024/01/02 09:15:39;;;;;;;0.38;0.30;;;4.70;99.90;;;;;;4988242;28;20117;-75
2024/01/02 09:18:04;;;;;;;0.50;0.47;;;4.70;99.90;;;;;;4996938;28;20525;-73
2024/01/02 09:20:30;;;;;;;0.82;0.55;;;4.80;99.90;;;;;;5004682;28;20128;-74
2024/01/02 09:22:56;;;;;;;0.63;0.43;;;4.80;99.90;;;;;;4993477;28;20049;-73
2024/01/02 09:25:26;;;;;;;0.65;0.40;;;4.80;99.90;;;;;;4999656;28;20017;-75
2024/01/02 09:27:56;;;;;;;0.90;0.45;;;4.80;99.90;;;;;;4990568;28;20022;-73
2024/01/02 09:30:23;;;;;;;0.80;0.40;;;4.80;99.90;;;;;;5002887;28;20052;-73
2024/01/02 09:32:49;;;;;;;0.63;0.40;;;4.80;99.90;;;;;;4996839;28;20108;-74
2024/01/02 09:35:15;;;;;;;0.35;0.30;;;4.80;99.90;;;;;;4994304;28;20025;-73
2024/01/02 09:37:40;;;;;;;0.57;0.40;;;4.80;99.90;;;;;;4985875;28;20098;-74
2024/01/02 09:40:23;;;;;;;0.45;0.30;;;4.80;99.90;;;;;;5002637;28;20045;-73
2024/01/02 09:43:27;;;;;;;0.38;0.20;;;4.80;99.90;;;;;;4986388;28;20026;-73
2024/01/02 09:46:20;;;;;;;0.20;0.20;;;4.80;99.90;;;;;;4977736;28;20050;-73
2024/01/02 09:48:57;;;;;;;0.30;0.20;;;4.80;99.90;;;;;;4992458;28;20037;-73
2024/01/02 09:51:38;;;;;;;0.22;0.20;;;4.80;99.90;;;;;;4993069;28;20558;-74
2024/01/02 09:54:12;;;;;;;0.68;0.40;;;4.80;99.90;;;;;;5000163;28;20166;-73
2024/01/02 09:56:47;;;;;;;0.63;0.45;;;4.80;99.90;;;;;;4997605;28;20079;-73
2024/01/02 09:59:27;;;;;;;0.77;0.20;;;4.80;99.90;;;;;;4995337;28;20359;-73
2024/01/02 10:02:18;;;;;;;0.38;0.38;;;4.90;99.90;;;;;;4996801;28;20124;-73
2024/01/02 10:05:08;;;;;;;0.75;0.60;;;4.80;99.90;;;;;;4999817;28;20099;-74
2024/01/02 10:07:49;;;;;;;1.63;0.63;;;4.80;99.90;;;;;;4996808;28;20018;-74
2024/01/02 10:10:28;;;;;;;0.30;0.28;;;4.90;99.90;;;;;;5006027;28;20026;-73
2024/01/02 10:12:57;;;;;;;0.30;0.30;;;4.90;99.90;;;;;;5000932;28;20030;-74
2024/01/02 10:15:44;;;;;;;0.60;0.30;;;4.90;99.90;;;;;;4996520;28;20045;-74
2024/01/02 10:18:28;;;;;;;0.30;0.30;;;4.90;99.90;;;;;;4998979;28;20376;-74
2024/01/02 10:21:08;;;;;;;0.40;0.20;;;4.90;99.90;;;;;;4991473;28;20038;-74
2024/01/02 10:23:50;;;;;;;1.10;0.50;;;4.90;99.90;;;;;;4997290;28;20447;-75
2024/01/02 10:26:19;;;;;;;0.20;0.20;;;4.90;99.90;;;;;;5004862;28;20046;-74
2024/01/02 10:28:48;;;;;;;0.40;0.30;;;4.90;99.90;;;;;;5001167;28;20038;-75
2024/01/02 10:31:25;;;;;;;0.13;0.13;;;4.90;99.90;;;;;;4999508;28;20105;-74
2024/01/02 10:34:20;;;;;;;0.30;0.30;;;4.90;99.90;;;;;;5004058;28;20493;-74
2024/01/02 10:36:52;;;;;;;0.82;0.30;;;4.90;99.90;;;;;;4992370;28;20101;-75
2024/01/02 10:39:29;;;;;;;0.28;0.20;;;4.90;99.90;;;;;;5003826;28;20041;-75
2024/01/02 10:42:22;;;;;;;0.45;0.30;;;5.00;99.90;;;;;;5004957;28;20033;-74
2024/01/02 10:44:47;;;;;;;0.15;0.15;;;4.90;99.90;;;;;;4996765;28;20153;-75
2024/01/02 10:47:22;;;;;;;0.13;0.13;;;5.00;99.90;;;;;;4998373;28;20145;-74
2024/01/02 10:49:53;;;;;;;0.20;0.20;;;4.90;99.90;;;;;;4995552;28;20117;-75
2024/01/02 10:52:30;;;;;;;0.77;0.20;;;5.00;99.90;;;;;;4997252;28;20026;-74
2024/01/02 10:55:10;;;;;;;0.20;0.20;;;5.00;99.90;;;;;;5000347;28;20033;-75
2024/01/02 10:57:55;;;;;;;0.20;0.20;;;5.00;99.90;;;;;;5001823;28;20026;-75
2024/01/02 11:00:22;;;;;;;0.30;0.30;;;5.00;99.90;;;;;;4978490;28;20025;-74
2024/01/02 11:02:57;;;;;;;0.50;0.38;;;5.10;99.90;;;;;;4999048;28;20092;-74
2024/01/02 11:05:34;;;;;;;0.00;0.00;;;5.00;99.90;;;;;;5010486;28;20030;-74
2024/01/02 11:08:06;;;;;;;0.80;0.30;;;5.00;99.90;;;;;;5006629;28;20030;-74
2024/01/02 11:10:46;;;;;;;0.40;0.22;;;5.10;99.90;;;;;;5000046;28;20029;-74
2024/01/02 11:13:13;;;;;;;0.30;0.22;;;5.00;99.90;;;;;;4995347;28;20030;-74
2024/01/02 11:15:41;;;;;;;0.20;0.20;;;5.00;99.90;;;;;;5002454;28;20101;-74
2024/01/02 11:18:07;;;;;;;0.52;0.28;;;5.10;99.90;;;;;;4994755;28;20037;-73
2024/01/02 11:20:46;;;;;;;0.35;0.10;;;5.10;99.90;;;;;;4999007;28;20038;-74
2024/01/02 11:23:15;;;;;;;0.30;0.30;;;5.00;99.90;;;;;;4996992;28;20026;-73
2024/01/02 11:25:50;;;;;;;0.10;0.10;;;5.00;99.90;;;;;;4997202;28;20022;-74
2024/01/02 11:28:21;;;;;;;0.52;0.30;;;5.10;99.90;;;;;;4998408;28;20502;-74
2024/01/02 11:30:48;;;;;;;0.30;0.30;;;5.00;99.90;;;;;;5006422;28;22156;-74
2024/01/02 11:33:20;;;;;;;1.70;0.60;;;5.10;99.90;;;;;;5004013;28;20037;-74
2024/01/02 11:36:15;;;;;;;0.90;0.40;;;5.00;99.90;;;;;;4999797;28;20042;-74
2024/01/02 11:39:03;;;;;;;0.75;0.32;;;5.10;99.90;;;;;;4987738;28;20153;-75
2024/01/02 11:42:07;;;;;;;0.20;0.20;;;5.10;99.90;;;;;;4997150;28;20076;-74
2024/01/02 11:44:52;;;;;;;0.50;0.50;;;5.10;99.90;;;;;;5000138;28;20439;-73
2024/01/02 11:47:39;;;;;;;0.40;0.28;;;5.10;99.90;;;;;;4982429;28;20104;-72
2024/01/02 11:50:08;;;;;;;0.88;0.40;;;5.10;99.90;;;;;;4997632;28;20112;-72
2024/01/02 11:52:44;;;;;;;0.10;0.10;;;5.00;99.90;;;;;;5001814;28;20467;-72
2024/01/02 11:55:18;;;;;;;0.35;0.35;;;5.00;99.90;;;;;;4998004;28;20465;-71
2024/01/02 11:57:52;;;;;;;1.35;0.52;;;5.10;99.90;;;;;;4993178;28;20049;-72
2024/01/02 12:00:42;;;;;;;0.50;0.30;;;5.00;99.90;;;;;;4998871;28;20041;-72
2024/01/02 12:03:26;;;;;;;0.22;0.22;;;5.10;99.90;;;;;;4995970;28;20414;-72
2024/01/02 12:06:00;;;;;;;0.30;0.20;;;5.10;99.90;;;;;;4996270;28;20030;-75
2024/01/02 12:08:29;;;;;;;0.30;0.30;;;5.10;99.90;;;;;;4999623;28;20037;-77
2024/01/02 12:11:01;;;;;;;0.50;0.50;;;5.10;99.90;;;;;;4998081;28;20177;-80
2024/01/02 12:13:36;;;;;;;0.20;0.20;;;5.10;99.90;;;;;;5002014;28;20438;-74
2024/01/02 12:16:09;;;;;;;0.10;0.10;;;5.10;99.90;;;;;;4993447;28;20030;-73
2024/01/02 12:18:36;;;;;;;0.20;0.20;;;5.10;99.90;;;;;;4944064;28;20042;-73
2024/01/02 12:21:09;;;;;;;0.20;0.20;;;5.10;99.90;;;;;;4981147;28;20068;-73
2024/01/02 12:23:36;;;;;;;0.70;0.20;;;5.10;99.90;;;;;;4980627;28;20030;-73
2024/01/02 12:26:04;;;;;;;0.28;0.28;;;5.20;99.90;;;;;;5002693;28;20037;-72
2024/01/02 12:28:32;;;;;;;0.30;0.30;;;5.10;99.90;;;;;;4998841;28;20022;-73
2024/01/02 12:31:12;;;;;;;0.43;0.20;;;5.20;99.90;;;;;;4997446;28;20138;-73
2024/01/02 12:33:45;;;;;;;0.25;0.25;;;5.20;99.90;;;;;;4999100;28;20058;-74
2024/01/02 12:36:29;;;;;;;0.20;0.20;;;5.20;99.90;;;;;;4999735;28;20034;-74
2024/01/02 12:38:57;;;;;;;0.28;0.22;;;5.20;99.90;;;;;;4998296;28;20121;-74
2024/01/02 12:41:28;;;;;;;0.25;0.25;;;5.20;99.90;;;;;;4999700;28;20045;-73
2024/01/02 12:43:59;;;;;;;0.28;0.28;;;5.20;99.90;;;;;;4993422;28;20537;-73
2024/01/02 12:46:35;;;;;;;0.30;0.30;;;5.20;99.90;;;;;;5006074;28;20050;-74
2024/01/02 12:49:09;;;;;;;0.40;0.40;;;5.20;99.90;;;;;;4988653;28;20060;-74
2024/01/02 12:51:41;;;;;;;0.30;0.30;;;5.20;99.90;;;;;;4999449;28;20033;-73
2024/01/02 12:54:08;;;;;;;1.05;0.40;;;5.20;99.90;;;;;;5000431;28;20399;-73
2024/01/02 12:56:39;;;;;;;0.68;0.40;;;5.20;99.90;;;;;;4997571;28;20383;-72
2024/01/02 12:59:06;;;;;;;0.55;0.43;;;5.30;99.90;;;;;;4993123;28;20520;-72
2024/01/02 13:01:32;;;;;;;0.52;0.40;;;5.30;99.90;;;;;;4998288;28;20340;-72
2024/01/02 13:03:59;;;;;;;0.52;0.40;;;5.30;99.90;;;;;;4994573;28;20506;-72